createdAt,value
2019-04-10T00:00:53.448Z,35.45
2019-04-10T00:03:31.967Z,34.95
2019-04-10T00:05:56.306Z,35.23
2019-04-10T00:08:26.565Z,33.73
2019-04-10T00:10:56.800Z,35.23
2019-04-10T00:13:27.610Z,34.08
2019-04-10T00:15:59.620Z,35.50
2019-04-10T00:18:30.037Z,34.23
2019-04-10T00:21:00.869Z,34.85
2019-04-10T00:23:33.159Z,36.53
2019-04-10T00:26:03.622Z,34.03
2019-04-10T00:28:35.896Z,33.45
2019-04-10T00:31:06.013Z,35.08
2019-04-10T00:33:36.735Z,34.48
2019-04-10T00:36:07.943Z,33.90
2019-04-10T00:38:38.060Z,35.68
2019-04-10T00:41:08.084Z,35.75
2019-04-10T00:43:39.946Z,35.83
2019-04-10T00:46:10.329Z,35.78
2019-04-10T00:48:41.789Z,35.08
2019-04-10T00:51:12.047Z,35.95
2019-04-10T00:53:42.138Z,34.63
2019-04-10T00:56:12.481Z,35.68
2019-04-10T00:58:43.629Z,36.05
2019-04-10T01:01:14.349Z,34.55
2019-04-10T01:03:46.674Z,35.98
2019-04-10T01:06:17.213Z,36.20
2019-04-10T01:08:47.287Z,35.78
2019-04-10T01:11:17.296Z,35.40
2019-04-10T01:13:47.497Z,34.65
2019-04-10T01:16:17.950Z,35.15
2019-04-10T01:18:48.036Z,34.48
2019-04-10T01:21:18.131Z,35.52
2019-04-10T01:23:49.080Z,35.33
2019-04-10T01:26:19.255Z,33.92
2019-04-10T01:28:51.249Z,33.88
2019-04-10T01:31:21.432Z,34.03
2019-04-10T01:33:52.753Z,33.48
2019-04-10T01:36:22.858Z,35.00
2019-04-10T01:38:53.771Z,32.23
2019-04-10T01:41:23.955Z,31.90
2019-04-10T01:43:55.288Z,31.55
2019-04-10T01:46:26.355Z,30.00
2019-04-10T01:48:57.521Z,31.57
2019-04-10T01:51:28.750Z,29.90
2019-04-10T01:53:58.758Z,27.98
2019-04-10T01:56:33.155Z,28.38
2019-04-10T01:59:01.375Z,29.95
2019-04-10T02:01:36.769Z,27.85
2019-04-10T02:04:06.847Z,27.85
2019-04-10T02:06:37.810Z,27.58
2019-04-10T02:09:10.942Z,27.00
2019-04-10T02:11:41.881Z,27.13
2019-04-10T02:14:12.134Z,26.07
2019-04-10T02:16:43.197Z,25.75
2019-04-10T02:19:14.277Z,26.45
2019-04-10T02:21:45.497Z,24.18
2019-04-10T02:24:16.629Z,24.98
2019-04-10T02:26:46.770Z,25.15
2019-04-10T02:29:17.655Z,24.10
2019-04-10T02:31:50.545Z,24.87
2019-04-10T02:34:21.230Z,24.65
2019-04-10T02:36:52.850Z,23.80
2019-04-10T02:39:32.386Z,22.60
2019-04-10T02:41:56.275Z,22.80
2019-04-10T02:44:28.402Z,22.45
2019-04-10T02:46:59.689Z,22.85
2019-04-10T02:49:30.067Z,20.60
2019-04-10T02:52:00.082Z,20.27
2019-04-10T02:54:30.187Z,19.70
2019-04-10T02:57:01.024Z,21.20
2019-04-10T02:59:31.281Z,20.77
2019-04-10T03:02:02.340Z,19.42
2019-04-10T03:04:35.073Z,20.80
2019-04-10T03:07:05.398Z,19.77
2019-04-10T03:09:49.713Z,19.30
2019-04-10T03:12:08.535Z,18.98
2019-04-10T03:14:42.938Z,18.50
2019-04-10T03:17:12.231Z,18.27
2019-04-10T03:19:43.545Z,17.23
2019-04-10T03:22:13.642Z,17.87
2019-04-10T03:24:44.393Z,17.55
2019-04-10T03:27:14.585Z,17.82
2019-04-10T03:29:45.028Z,17.25
2019-04-10T03:32:40.667Z,16.77
2019-04-10T03:35:16.772Z,16.67
2019-04-10T03:37:48.642Z,18.20
2019-04-10T03:40:19.552Z,16.77
2019-04-10T03:42:49.786Z,16.07
2019-04-10T03:45:20.258Z,16.50
2019-04-10T03:47:51.416Z,16.45
2019-04-10T03:50:23.662Z,16.87
2019-04-10T03:52:53.841Z,18.17
2019-04-10T03:55:25.063Z,17.37
2019-04-10T03:57:55.307Z,16.73
2019-04-10T04:00:27.805Z,16.37
2019-04-10T04:02:58.229Z,16.77
2019-04-10T04:05:28.806Z,16.80
2019-04-10T04:07:59.314Z,15.93
2019-04-10T04:10:29.449Z,17.30
2019-04-10T04:13:00.211Z,17.05
2019-04-10T04:15:30.649Z,17.05
2019-04-10T04:18:00.636Z,15.75
2019-04-10T04:20:30.773Z,16.50
2019-04-10T04:23:01.397Z,15.55
2019-04-10T04:25:32.496Z,17.25
2019-04-10T04:28:04.634Z,17.77
2019-04-10T04:30:36.021Z,16.95
2019-04-10T04:33:07.238Z,16.52
2019-04-10T04:35:37.257Z,16.20
2019-04-10T04:38:07.321Z,16.07
2019-04-10T04:40:37.763Z,17.10
2019-04-10T04:43:08.910Z,16.32
2019-04-10T04:45:38.997Z,17.55
2019-04-10T04:48:09.844Z,17.70
2019-04-10T04:50:40.083Z,17.32
2019-04-10T04:53:10.744Z,16.27
2019-04-10T04:55:40.861Z,17.27
2019-04-10T04:58:11.777Z,15.63
2019-04-10T05:00:42.925Z,17.02
2019-04-10T05:03:13.317Z,17.32
2019-04-10T05:05:43.392Z,17.25
2019-04-10T05:08:13.529Z,16.65
2019-04-10T05:10:43.522Z,16.67
2019-04-10T05:13:13.885Z,16.45
2019-04-10T05:15:45.155Z,16.55
2019-04-10T05:18:15.203Z,16.42
2019-04-10T05:20:49.976Z,16.57
2019-04-10T05:23:18.049Z,16.80
2019-04-10T05:25:48.178Z,17.48
2019-04-10T05:28:19.001Z,16.02
2019-04-10T05:30:50.499Z,15.85
2019-04-10T05:33:20.744Z,17.12
2019-04-10T05:35:52.665Z,16.77
2019-04-10T05:38:24.983Z,16.70
2019-04-10T05:40:55.257Z,16.95
2019-04-10T05:43:26.065Z,16.95
2019-04-10T05:45:57.171Z,16.17
2019-04-10T05:48:28.634Z,17.20
2019-04-10T05:51:03.002Z,16.80
2019-04-10T05:53:30.377Z,17.12
2019-04-10T05:56:01.750Z,17.70
2019-04-10T05:58:31.980Z,16.73
2019-04-10T06:01:05.353Z,16.67
2019-04-10T06:03:36.567Z,16.37
2019-04-10T06:06:06.775Z,16.32
2019-04-10T06:08:37.312Z,17.07
2019-04-10T06:11:08.613Z,16.95
2019-04-10T06:13:40.904Z,17.07
2019-04-10T06:16:11.835Z,17.55
2019-04-10T06:18:43.062Z,17.40
2019-04-10T06:21:14.765Z,16.70
2019-04-10T06:23:45.009Z,17.65
2019-04-10T06:26:16.438Z,16.27
2019-04-10T06:28:47.001Z,17.30
2019-04-10T06:31:17.085Z,16.80
2019-04-10T06:33:47.138Z,17.27
2019-04-10T06:36:17.539Z,18.30
2019-04-10T06:38:47.774Z,17.57
2019-04-10T06:41:19.218Z,17.62
2019-04-10T06:43:49.794Z,17.77
2019-04-10T06:46:20.171Z,17.92
2019-04-10T06:48:50.317Z,18.37
2019-04-10T06:51:21.684Z,18.23
2019-04-10T06:54:01.802Z,18.07
2019-04-10T06:56:23.687Z,18.20
2019-04-10T06:58:54.079Z,18.23
2019-04-10T07:01:26.107Z,18.00
2019-04-10T07:04:02.126Z,18.85
2019-04-10T07:06:44.653Z,18.95
2019-04-10T07:08:59.319Z,17.92
2019-04-10T07:11:32.166Z,17.73
2019-04-10T07:14:01.774Z,18.85
2019-04-10T07:16:34.025Z,18.90
2019-04-10T07:19:06.946Z,18.55
2019-04-10T07:21:37.097Z,17.92
2019-04-10T07:24:11.004Z,18.87
2019-04-10T07:26:43.687Z,18.23
2019-04-10T07:29:16.410Z,19.05
2019-04-10T07:31:44.678Z,18.25
2019-04-10T07:34:15.100Z,18.90
2019-04-10T07:36:46.597Z,18.90
2019-04-10T07:39:17.332Z,18.12
2019-04-10T07:41:47.516Z,18.90
2019-04-10T07:44:18.598Z,18.15
2019-04-10T07:46:52.927Z,20.12
2019-04-10T07:49:27.457Z,18.73
2019-04-10T07:51:54.930Z,18.67
2019-04-10T07:54:24.945Z,19.50
2019-04-10T07:56:55.736Z,18.65
2019-04-10T07:59:25.744Z,18.73
2019-04-10T08:01:55.976Z,19.60
2019-04-10T08:04:26.856Z,19.37
2019-04-10T08:06:57.044Z,19.60
2019-04-10T08:09:27.390Z,19.00
2019-04-10T08:11:59.858Z,18.95
2019-04-10T08:14:31.464Z,18.87
2019-04-10T08:17:01.693Z,19.67
2019-04-10T08:19:32.804Z,19.62
2019-04-10T08:22:03.670Z,18.77
2019-04-10T08:24:34.429Z,19.42
2019-04-10T08:27:05.347Z,18.70
2019-04-10T08:29:36.444Z,19.82
2019-04-10T08:32:07.540Z,18.65
2019-04-10T08:34:37.898Z,18.30
2019-04-10T08:37:08.150Z,19.32
2019-04-10T08:39:42.996Z,19.90
2019-04-10T08:42:10.663Z,18.87
2019-04-10T08:44:40.769Z,19.10
2019-04-10T08:47:11.105Z,18.07
2019-04-10T08:49:41.217Z,18.57
2019-04-10T08:52:12.249Z,18.60
2019-04-10T08:54:43.091Z,17.25
2019-04-10T08:57:13.719Z,17.65
2019-04-10T08:59:44.549Z,18.60
2019-04-10T09:02:15.898Z,19.05
2019-04-10T09:04:47.527Z,17.65
2019-04-10T09:07:17.902Z,18.32
2019-04-10T09:09:48.039Z,18.07
2019-04-10T09:12:18.106Z,19.17
2019-04-10T09:14:48.109Z,18.52
2019-04-10T09:17:18.152Z,18.48
2019-04-10T09:19:48.227Z,18.70
2019-04-10T09:22:18.268Z,18.00
2019-04-10T09:24:48.873Z,18.32
2019-04-10T09:27:19.281Z,19.05
2019-04-10T09:29:49.658Z,18.05
2019-04-10T09:32:20.130Z,18.30
2019-04-10T09:34:50.284Z,19.32
2019-04-10T09:37:20.340Z,18.60
2019-04-10T09:39:51.959Z,19.17
2019-04-10T09:42:23.546Z,17.87
2019-04-10T09:44:54.841Z,17.12
2019-04-10T09:47:24.989Z,17.42
2019-04-10T09:49:55.570Z,18.48
2019-04-10T09:52:25.854Z,16.70
2019-04-10T09:54:56.028Z,17.20
2019-04-10T09:57:26.658Z,16.70
2019-04-10T09:59:57.998Z,16.00
2019-04-10T10:02:28.093Z,16.73
2019-04-10T10:04:58.191Z,16.87
2019-04-10T10:07:28.452Z,16.77
2019-04-10T10:10:00.766Z,18.57
2019-04-10T10:12:30.622Z,18.12
2019-04-10T10:15:00.718Z,19.10
2019-04-10T10:17:30.888Z,19.32
2019-04-10T10:20:01.797Z,19.40
2019-04-10T10:22:32.125Z,19.27
2019-04-10T10:25:02.922Z,19.02
2019-04-10T10:27:34.304Z,19.00
2019-04-10T10:30:05.246Z,18.40
2019-04-10T10:32:35.249Z,17.57
2019-04-10T10:35:07.160Z,18.27
2019-04-10T10:37:38.709Z,18.35
2019-04-10T10:40:10.165Z,19.42
2019-04-10T10:42:41.422Z,18.67
2019-04-10T10:45:12.447Z,18.42
2019-04-10T10:47:42.589Z,19.62
2019-04-10T10:50:13.108Z,18.37
2019-04-10T10:52:43.835Z,19.27
2019-04-10T10:55:14.055Z,18.85
2019-04-10T10:57:44.275Z,17.82
2019-04-10T11:00:29.434Z,18.23
2019-04-10T11:03:00.211Z,17.57
2019-04-10T11:05:32.001Z,16.87
2019-04-10T11:08:03.155Z,16.35
2019-04-10T11:10:33.931Z,16.73
2019-04-10T11:13:03.948Z,16.00
2019-04-10T11:15:34.138Z,17.07
2019-04-10T11:18:06.308Z,16.87
2019-04-10T11:20:36.566Z,17.20
2019-04-10T11:23:06.625Z,16.82
2019-04-10T11:25:37.750Z,17.32
2019-04-10T11:28:08.041Z,15.65
2019-04-10T11:30:38.350Z,16.27
2019-04-10T11:33:08.579Z,16.20
2019-04-10T11:35:39.652Z,15.10
2019-04-10T11:38:10.951Z,16.30
2019-04-10T11:40:41.424Z,16.65
2019-04-10T11:43:12.472Z,15.53
2019-04-10T11:45:51.266Z,15.23
2019-04-10T11:48:16.354Z,15.65
2019-04-10T11:50:48.424Z,15.10
2019-04-10T11:53:19.109Z,15.38
2019-04-10T11:55:52.989Z,15.32
2019-04-10T11:58:24.378Z,14.38
2019-04-10T12:00:56.439Z,14.68
2019-04-10T12:03:27.017Z,15.08
2019-04-10T12:05:59.574Z,13.83
2019-04-10T12:08:50.377Z,15.72
2019-04-10T12:13:33.173Z,14.95
2019-04-10T12:16:03.294Z,14.40
2019-04-10T12:18:33.322Z,14.53
2019-04-10T12:21:03.506Z,14.25
2019-04-10T12:23:34.654Z,14.68
2019-04-10T12:26:05.019Z,14.25
2019-04-10T12:28:36.099Z,13.72
2019-04-10T12:31:06.554Z,14.80
2019-04-10T12:33:36.579Z,13.15
2019-04-10T12:36:10.558Z,14.28
2019-04-10T12:38:41.565Z,12.45
2019-04-10T12:41:11.965Z,13.98
2019-04-10T12:43:43.261Z,14.10
2019-04-10T12:46:13.326Z,14.07
2019-04-10T12:48:43.863Z,13.60
2019-04-10T12:51:13.990Z,13.00
2019-04-10T12:53:44.037Z,14.50
2019-04-10T12:56:14.174Z,13.85
2019-04-10T12:58:44.694Z,13.20
2019-04-10T13:01:16.322Z,13.75
2019-04-10T13:03:47.353Z,14.35
2019-04-10T13:06:17.971Z,14.63
2019-04-10T13:08:59.148Z,13.50
2019-04-10T13:11:20.515Z,13.58
2019-04-10T13:13:51.330Z,13.08
2019-04-10T13:16:21.871Z,13.98
2019-04-10T13:18:52.356Z,13.32
2019-04-10T13:21:22.606Z,13.38
2019-04-10T13:23:53.028Z,13.55
2019-04-10T13:26:23.937Z,13.43
2019-04-10T13:28:54.167Z,13.10
2019-04-10T13:31:24.238Z,13.43
2019-04-10T13:33:55.073Z,14.15
2019-04-10T13:36:25.255Z,13.43
2019-04-10T13:38:55.263Z,14.10
2019-04-10T13:41:26.152Z,13.10
2019-04-10T13:43:56.279Z,13.35
2019-04-10T13:46:26.848Z,12.73
2019-04-10T13:48:57.641Z,12.90
2019-04-10T13:51:27.783Z,13.30
2019-04-10T13:53:58.524Z,12.95
2019-04-10T13:56:29.390Z,12.88
2019-04-10T13:59:00.344Z,13.25
2019-04-10T14:01:33.546Z,12.68
2019-04-10T14:04:04.929Z,13.48
2019-04-10T14:06:35.999Z,13.05
2019-04-10T14:09:28.864Z,11.88
2019-04-10T14:11:47.351Z,12.47
2019-04-10T14:14:18.286Z,12.90
2019-04-10T14:16:48.872Z,12.20
2019-04-10T14:19:19.072Z,12.78
2019-04-10T14:21:49.509Z,12.68
2019-04-10T14:24:20.011Z,13.28
2019-04-10T14:27:10.302Z,13.53
2019-04-10T14:29:40.776Z,12.78
2019-04-10T14:32:15.359Z,12.68
2019-04-10T14:34:45.484Z,13.18
2019-04-10T14:37:16.834Z,13.20
2019-04-10T14:39:48.087Z,12.93
2019-04-10T14:42:18.330Z,13.05
2019-04-10T14:44:48.679Z,13.38
2019-04-10T14:47:20.312Z,12.82
2019-04-10T14:49:52.634Z,13.93
2019-04-10T14:52:23.277Z,14.35
2019-04-10T14:54:54.401Z,14.05
2019-04-10T14:57:26.601Z,13.98
2019-04-10T14:59:57.897Z,13.68
2019-04-10T15:02:28.095Z,13.83
2019-04-10T15:04:58.137Z,13.88
2019-04-10T15:07:28.970Z,12.70
2019-04-10T15:10:00.094Z,13.60
2019-04-10T15:12:30.263Z,13.75
2019-04-10T15:15:00.339Z,13.90
2019-04-10T15:17:30.830Z,13.88
2019-04-10T15:20:01.126Z,13.78
2019-04-10T15:22:33.569Z,13.48
2019-04-10T15:25:05.391Z,14.60
2019-04-10T15:27:35.614Z,13.58
2019-04-10T15:30:06.228Z,14.28
2019-04-10T15:32:36.325Z,13.62
2019-04-10T15:35:06.600Z,13.80
2019-04-10T15:37:37.445Z,12.60
2019-04-10T15:40:17.690Z,13.93
2019-04-10T15:42:40.589Z,13.13
2019-04-10T15:45:10.838Z,13.30
2019-04-10T15:47:49.261Z,14.03
2019-04-10T15:50:13.698Z,14.20
2019-04-10T15:52:45.086Z,12.55
2019-04-10T15:55:15.530Z,13.38
2019-04-10T15:57:53.029Z,13.15
2019-04-10T16:00:17.696Z,13.05
2019-04-10T16:02:48.912Z,12.53
2019-04-10T16:05:19.535Z,12.98
2019-04-10T16:08:09.953Z,13.72
2019-04-10T16:10:53.004Z,13.22
2019-04-10T16:13:32.287Z,13.38
2019-04-10T16:16:20.688Z,12.58
2019-04-10T16:18:55.367Z,12.68
2019-04-10T16:21:26.805Z,13.10
2019-04-10T16:24:03.243Z,13.15
2019-04-10T16:26:33.595Z,13.40
2019-04-10T16:29:04.050Z,12.80
2019-04-10T16:31:35.481Z,13.45
2019-04-10T16:34:05.835Z,12.63
2019-04-10T16:36:36.019Z,12.63
2019-04-10T16:39:09.146Z,13.32
2019-04-10T16:41:39.579Z,14.75
2019-04-10T16:44:10.928Z,14.47
2019-04-10T16:46:42.502Z,14.15
2019-04-10T16:49:12.786Z,13.55
2019-04-10T16:51:42.926Z,14.13
2019-04-10T16:54:13.062Z,13.62
2019-04-10T16:56:43.194Z,13.95
2019-04-10T16:59:14.214Z,13.72
2019-04-10T17:01:44.882Z,13.90
2019-04-10T17:04:18.905Z,13.03
2019-04-10T17:06:50.474Z,13.62
2019-04-10T17:09:23.422Z,13.35
2019-04-10T17:11:53.807Z,13.45
2019-04-10T17:14:24.118Z,13.50
2019-04-10T17:16:54.299Z,13.70
2019-04-10T17:19:24.652Z,13.32
2019-04-10T17:21:54.889Z,14.53
2019-04-10T17:24:25.127Z,13.48
2019-04-10T17:26:55.821Z,14.03
2019-04-10T17:29:27.143Z,14.07
2019-04-10T17:31:57.576Z,14.55
2019-04-10T17:34:27.823Z,13.98
2019-04-10T17:36:59.085Z,13.90
2019-04-10T17:39:29.348Z,13.08
2019-04-10T17:42:00.002Z,13.78
2019-04-10T17:44:30.308Z,14.07
2019-04-10T17:47:01.702Z,13.30
2019-04-10T17:49:32.136Z,12.75
2019-04-10T17:52:03.969Z,13.20
2019-04-10T17:54:34.605Z,13.45
2019-04-10T17:57:06.531Z,13.00
2019-04-10T17:59:36.694Z,12.43
2019-04-10T18:02:11.672Z,15.85
2019-04-10T18:04:42.178Z,13.65
2019-04-10T18:07:12.581Z,13.08
2019-04-10T18:09:43.058Z,12.85
2019-04-10T18:12:14.247Z,14.05
2019-04-10T18:14:44.475Z,13.28
2019-04-10T18:17:14.594Z,13.08
2019-04-10T18:19:44.778Z,12.55
2019-04-10T18:22:14.883Z,13.48
2019-04-10T18:24:46.123Z,12.78
2019-04-10T18:27:16.382Z,11.90
2019-04-10T18:29:49.632Z,11.93
2019-04-10T18:32:19.780Z,12.60
2019-04-10T18:34:50.061Z,12.47
2019-04-10T18:37:23.733Z,12.47
2019-04-10T18:39:52.018Z,12.45
2019-04-10T18:42:24.120Z,12.58
2019-04-10T18:44:54.080Z,12.18
2019-04-10T18:47:25.000Z,13.22
2019-04-10T18:49:55.955Z,12.65
2019-04-10T18:52:26.206Z,12.88
2019-04-10T18:54:58.422Z,13.32
2019-04-10T18:57:31.284Z,13.50
2019-04-10T19:00:08.235Z,12.80
2019-04-10T19:02:49.664Z,12.85
2019-04-10T19:05:25.668Z,11.80
2019-04-10T19:07:56.691Z,12.13
2019-04-10T19:10:26.911Z,12.65
2019-04-10T19:12:59.506Z,13.32
2019-04-10T19:15:31.118Z,13.18
2019-04-10T19:18:01.652Z,12.63
2019-04-10T19:20:31.743Z,11.80
2019-04-10T19:23:01.856Z,12.03
2019-04-10T19:25:33.110Z,11.45
2019-04-10T19:28:04.470Z,11.83
2019-04-10T19:30:41.470Z,11.83
2019-04-10T19:33:12.144Z,13.40
2019-04-10T19:35:43.423Z,11.75
2019-04-10T19:38:15.000Z,12.10
2019-04-10T19:40:45.831Z,12.10
2019-04-10T19:43:16.175Z,11.65
2019-04-10T19:45:46.239Z,11.28
2019-04-10T19:48:17.252Z,12.15
2019-04-10T19:50:47.781Z,11.63
2019-04-10T19:53:19.312Z,12.07
2019-04-10T19:55:49.438Z,12.13
2019-04-10T19:58:19.678Z,11.43
2019-04-10T20:00:49.959Z,11.22
2019-04-10T20:03:20.045Z,12.10
2019-04-10T20:05:51.236Z,10.70
2019-04-10T20:08:21.721Z,10.85
2019-04-10T20:10:51.982Z,11.45
2019-04-10T20:13:22.734Z,10.95
2019-04-10T20:15:53.085Z,10.72
2019-04-10T20:18:24.421Z,10.68
2019-04-10T20:20:55.477Z,10.95
2019-04-10T20:23:25.841Z,10.82
2019-04-10T20:25:56.941Z,10.20
2019-04-10T20:28:27.295Z,9.88
2019-04-10T20:30:58.096Z,11.50
2019-04-10T20:33:30.479Z,10.60
2019-04-10T20:36:00.977Z,9.73
2019-04-10T20:38:33.419Z,10.08
2019-04-10T20:41:04.661Z,10.32
2019-04-10T20:43:37.249Z,10.05
2019-04-10T20:46:07.596Z,10.28
2019-04-10T20:48:38.858Z,10.08
2019-04-10T20:51:09.267Z,9.95
2019-04-10T20:53:40.178Z,10.10
2019-04-10T20:56:10.572Z,9.68
2019-04-10T20:58:40.799Z,10.20
2019-04-10T21:01:12.391Z,10.75
2019-04-10T21:03:42.626Z,10.60
2019-04-10T21:06:13.358Z,10.70
2019-04-10T21:08:44.560Z,11.00
2019-04-10T21:11:15.842Z,11.00
2019-04-10T21:13:47.001Z,9.70
2019-04-10T21:16:18.026Z,10.32
2019-04-10T21:18:48.268Z,9.65
2019-04-10T21:21:18.674Z,9.88
2019-04-10T21:23:48.843Z,10.15
2019-04-10T21:26:19.849Z,11.30
2019-04-10T21:28:50.026Z,10.82
2019-04-10T21:31:44.931Z,10.88
2019-04-10T21:34:23.181Z,11.00
2019-04-10T21:36:53.412Z,10.82
2019-04-10T21:39:23.551Z,9.85
2019-04-10T21:41:53.613Z,11.18
2019-04-10T21:44:24.662Z,10.65
2019-04-10T21:46:55.070Z,11.53
2019-04-10T21:49:26.176Z,11.65
2019-04-10T21:51:56.382Z,11.18
2019-04-10T21:54:27.041Z,11.53
2019-04-10T21:56:57.665Z,11.28
2019-04-10T21:59:28.906Z,11.85
2019-04-10T22:01:59.393Z,11.70
2019-04-10T22:04:30.767Z,12.68
2019-04-10T22:07:20.305Z,11.93
2019-04-10T22:10:03.540Z,12.10
2019-04-10T22:12:39.603Z,12.85
2019-04-10T22:15:13.096Z,12.25
2019-04-10T22:17:44.559Z,13.03
2019-04-10T22:20:15.225Z,12.43
2019-04-10T22:22:45.425Z,12.30
2019-04-10T22:25:15.801Z,13.15
2019-04-10T22:27:47.769Z,12.88
2019-04-10T22:30:18.966Z,13.18
2019-04-10T22:32:49.317Z,12.43
2019-04-10T22:35:19.530Z,13.15
2019-04-10T22:37:50.343Z,13.38
2019-04-10T22:40:21.638Z,12.75
2019-04-10T22:42:51.809Z,12.85
2019-04-10T22:45:29.053Z,12.95
2019-04-10T22:48:00.697Z,13.62
2019-04-10T22:50:31.155Z,13.98
2019-04-10T22:53:01.520Z,14.00
2019-04-10T22:55:32.021Z,14.63
2019-04-10T22:58:02.571Z,13.53
2019-04-10T23:00:32.958Z,14.00
2019-04-10T23:03:03.372Z,14.90
2019-04-10T23:05:34.792Z,13.80
2019-04-10T23:08:04.878Z,14.07
2019-04-10T23:10:35.303Z,14.68
2019-04-10T23:13:07.116Z,14.55
2019-04-10T23:15:37.727Z,15.25
2019-04-10T23:18:07.883Z,15.10
2019-04-10T23:20:37.914Z,13.93
2019-04-10T23:23:08.565Z,14.68
2019-04-10T23:25:38.645Z,15.90
2019-04-10T23:28:09.509Z,15.32
2019-04-10T23:30:39.642Z,15.93
2019-04-10T23:33:10.028Z,15.80
2019-04-10T23:35:41.225Z,15.75
2019-04-10T23:38:11.427Z,15.28
2019-04-10T23:40:41.530Z,15.60
2019-04-10T23:43:15.443Z,14.50
2019-04-10T23:45:44.023Z,15.63
2019-04-10T23:48:14.915Z,16.30
2019-04-10T23:50:46.164Z,15.80
2019-04-10T23:53:16.257Z,15.75
2019-04-10T23:55:46.404Z,15.25
2019-04-10T23:58:16.445Z,14.40
